KILN

Wilmington Airpark

Wilmington, Ohio, USA
KILN 192330Z 2000/2024 VRB03KT P6SM FEW050 SCT250 FM201300 17006KT P6SM SCT050 FM201800 20011KT P6SM BKN040
Issued Valid From Valid To
Sep-19 @ 23:30 UTC
(an hour ago)
Sep-20 @ 00:00 UTC
(42 minutes ago)
Sep-21 @ 00:00 UTC
(in 23 hours)
Sep-20 @ 00:00 to Sep-20 @ 13:00
KILN 192330Z 2000/2024 VRB03KT P6SM FEW050 SCT250
Wind Visibility Clouds
Variable at 3 knots Greater than 6 miles
  • Few at 5,000' AGL
  • Scattered at 25,000' AGL
From Sep-20 @ 13:00 to Sep-20 @ 18:00
FM201300 17006KT P6SM SCT050
Wind Visibility Clouds
170° at 6 knots Greater than 6 miles
  • Scattered at 5,000' AGL
From Sep-20 @ 18:00 to Sep-21 @ 00:00
FM201800 20011KT P6SM BKN040
Wind Visibility Clouds
200° at 11 knots Greater than 6 miles
  • Broken at 4,000' AGL
KILN 192330Z 2000/2024 VRB03KT P6SM FEW050 SCT250 FM201300 17006KT P6SM SCT050 FM201800 20011KT P6SM BKN040
Issued Sep-19 @ 23:30 UTC
(an hour ago)
Valid From Sep-20 @ 00:00 UTC
(42 minutes ago)
Valid To Sep-21 @ 00:00 UTC
(in 23 hours)
Sep-20 @ 00:00 - Sep-20 @ 13:00
Wind Visibility
Variable at 3 knots Greater than 6 miles
Clouds
  • Few at 5,000' AGL
  • Scattered at 25,000' AGL
From Sep-20 @ 13:00 - Sep-20 @ 18:00
Wind Visibility
170° at 6 knots Greater than 6 miles
Clouds
  • Scattered at 5,000' AGL
From Sep-20 @ 18:00 - Sep-21 @ 00:00
Wind Visibility
200° at 11 knots Greater than 6 miles
Clouds
  • Broken at 4,000' AGL